Tygh Valley, OR (97063)

5:23 PM PDT on October 25, 2014 (GMT -0700)
APRSWXNET Tygh Valley OR US | Change Station
CLOSE
Current Station
Personal Weather Station
Location: Tygh Valley, OR
Elevation: 984 ft
Nearby Weather Stations
Active Advisory: Wind Advisory

Elev 984 ft 45.26 °N, 121.14 °W | Updated 19 minutes ago

Overcast
Overcast
56.0 °F
Feels Like 56.0 °F
N
2.0
Wind Variable Wind from WSW

Today
High -- | Low -- °F
--% Chance of Precip.
Yesterday
High -- | Low -- °F
Precip. -- in
7:34 AM 6:03 PM
Waxing Crescent, 5% visible
Pressure 29.49 in
Visibility 10.0 miles
Clouds Mostly Cloudy 9000 ft
Overcast 11000 ft
Dew Point 50.0 °F
Humidity 79%
Rainfall -999.00 in
Snow Depth 1 in
UV 0 out of 12
Pollen .40 out of 12
Air Quality Not available.
Flu Activity Sporadic
METAR KDLS 252353Z AUTO 08007KT 10SM BKN090 OVC110 14/10 A2948 RMK AO2 SLP984 60001 T01440100 10156 20122 58012

More Conditions Fewer Conditions

Pressure 29.49 in
Visibility 10.0 miles
Clouds Mostly Cloudy 9000 ft
Overcast 11000 ft
Dew Point 50.0 °F
Humidity 79%
Rainfall -999.00 in
Snow Depth 1 in
UV 0 out of 12
Pollen .40 out of 12
Air Quality Not available.
Flu Activity Sporadic
METAR KDLS 252353Z AUTO 08007KT 10SM BKN090 OVC110 14/10 A2948 RMK AO2 SLP984 60001 T01440100 10156 20122 58012

More Conditions Fewer Conditions

10-Day Weather Forecast

Almanac

Astronomy

Oct. 25, 2014 Rise Set
Actual Time 7:34 AM PDT 6:03 PM PDT
Civil Twilight 7:04 AM PDT 6:33 PM PDT
Nautical Twilight 6:29 AM PDT 7:07 PM PDT
Astronomical Twilight 5:55 AM PDT 7:41 PM PDT
Moon 9:22 AM PDT (10/25) 7:26 PM PDT (10/25)
Length of Visible Light 11h 28m
Length of Day
10h 28m
Tomorrow will be 2m 55s shorter.
Waxing Crescent, 5% of the Moon is Illuminated
Today
Waxing Crescent
Oct 30
First Quarter
Nov 6
Full
Nov 14
Last Quarter
Nov 22
New

Today's Extremes

State Highs State Lows

Community

WunderPhotos

Upload Photos

1,765,039 photos uploaded!

Nearby

Snow Depth

Station Depth Elevation
Clear Lake 1 in 3500 ft
Clackamas Lake 0 in 3400 ft
Red Hill 0 in 4400 ft
Greenpoint 0 in 3200 ft
Peavine Ridge 0 in 3500 ft

Earthquake Activity

City Distance Mag. Time & Date
No recent earthquake activity has been reported nearby.
Minimum magnitude displayed is 2.5.

Coastal Water Temperatures

Place Temperature
No Stations Reporting

Nearby Weather Stations